Aviation Digital Data Service (ADDS)

Output produced by METARs form (0606 UTC 21 September 2014)
found at http://www.aviationweather.gov/adds/metars/
 
KMDT 210556Z 11004KT 8SM CLR 16/14 A2999 RMK AO2 SLP156 T01560139 10217 20156 58023
KMDT 210456Z 07003KT 10SM CLR 17/15 A3003 RMK AO2 SLP168 T01720150 402720156
KMDT 210356Z 00000KT 10SM CLR 18/16 A3006 RMK AO2 SLP177 T01830156
KMDT 210256Z 09003KT 10SM FEW250 18/15 A3006 RMK AO2 SLP179 T01830150 53007
KMDT 210156Z 12005KT 10SM FEW250 19/15 A3005 RMK AO2 SLP177 T01890150
KMDT 210056Z 15008KT 10SM FEW200 22/16 A3005 RMK AO2 SLP174 T02170156
KMDT 202356Z 14005KT 10SM FEW150 21/14 A3004 RMK AO2 SLP173 T02110139 10272 20206 56011
KMDT 202256Z 17010KT 10SM FEW050 FEW250 24/13 A3004 RMK AO2 SLP172 T02390128
KMDT 202156Z 15011KT 10SM FEW050 SCT250 25/14 A3006 RMK AO2 SLP179 T02500144
KMDT 202056Z 17009G16KT 10SM SCT050 SCT075 BKN250 26/14 A3007 RMK AO2 SLP183 T02560144 56021
KMDT 201956Z 19009G16KT 10SM SCT050 BKN075 BKN250 26/14 A3009 RMK AO2 SLP190 T02560139
KMDT 201856Z 21010G17KT 10SM SCT050 SCT080 BKN250 27/14 A3011 RMK AO2 SLP196 T02670144
KMDT 201756Z 17010KT 10SM SCT045 SCT080 SCT250 26/14 A3014 RMK AO2 SLP204 T02610144 10261 20161 58034
KMDT 201656Z 16006KT 10SM SCT035 BKN080 26/14 A3017 RMK AO2 SLP216 T02610144
KMDT 201621Z 18005KT 10SM SCT030 SCT085 24/14 A3019 RMK AO2 T02440144
KMDT 201556Z COR 21007KT 10SM BKN028 BKN085 24/16 A3021 RMK AO2 SLP229 T02390156
KMDT 201456Z 13006KT 8SM SCT015 BKN025 BKN085 21/16 A3024 RMK AO2 SLP240 T02110156 58006
KMDT 201416Z 14007KT 6SM HZ SCT012 BKN022 BKN085 19/15 A3025 RMK AO2 T01890150
KMDT 201356Z 13006KT 5SM BR OVC009 18/14 A3026 RMK AO2 SLP246 T01780144
KMDT 201256Z 11007KT 5SM BR OVC007 17/14 A3026 RMK AO2 SLP248 T01670139
KMDT 201156Z 12006KT 5SM BR OVC008 16/13 A3025 RMK AO2 SLP245 T01610133 10161 20156 58002
KMDT 201056Z 12005KT 6SM BR OVC008 16/13 A3026 RMK AO2 SLP248 T01560128
KMDT 200956Z 09004KT 8SM OVC009 16/13 A3027 RMK AO2 SLP250 T01560128
KMDT 200856Z 11005KT 7SM SCT010 OVC065 16/13 A3026 RMK AO2 SLP248 T01560128 56008
KMDT 200756Z 08004KT 7SM BKN010 OVC065 16/12 A3027 RMK AO2 SLP250 T01560122
KMDT 200656Z 12005KT 8SM BKN014 OVC065 16/13 A3028 RMK AO2 SLP251 T01560128
KMDT 200556Z 11007KT 8SM SCT017 BKN065 OVC250 16/13 A3029 RMK AO2 SLP256 T01560128 10178 20156 58005
KMDT 200456Z 12010KT 8SM SCT017 BKN065 OVC250 16/13 A3029 RMK AO2 SLP256 T01560128 402390094
KMDT 200356Z 13012KT 9SM SCT017 BKN065 OVC250 16/13 A3030 RMK AO2 SLP262 T01610128
KMDT 200256Z 13009KT 10SM FEW030 BKN080 BKN250 16/12 A3030 RMK AO2 SLP261 T01610122 51008
KMDT 200156Z 13010KT 10SM FEW030 BKN080 BKN250 17/13 A3030 RMK AO2 SLP260 T01720128
KMDT 200056Z 15006KT 10SM BKN080 BKN250 18/13 A3030 RMK AO2 SLP259 T01780128
KMDT 192356Z 12006KT 10SM FEW035 SCT080 SCT250 18/12 A3028 RMK AO2 SLP253 T01780122 10239 20178 53007
KMDT 192256Z 12009KT 10SM FEW040 SCT075 SCT250 19/12 A3026 RMK AO2 SLP248 T01940117
KMDT 192156Z 13012KT 10SM SCT040 BKN050 BKN070 BKN250 21/12 A3025 RMK AO2 SLP244 T02110122
KMDT 192056Z 13011KT 10SM BKN050 BKN075 BKN250 22/12 A3026 RMK AO2 SLP246 T02170117 56008
KMDT 191956Z 14010KT 10SM FEW030 SCT050 BKN100 BKN250 22/12 A3026 RMK AO2 SLP247 T02170117
KMDT 191856Z 14008KT 10SM SCT040 SCT100 SCT250 23/11 A3027 RMK AO2 SLP250 T02330111